ETHL

Laupheim Airport

Germany
METAR ETHL 151320Z 25017G27KT 9999 FEW028 04/M02 Q0999 BLU+
Observed Flight Rules
Dec-15 @ 13:20 UTC (43 minutes ago) Visual Flight Rules
Wind Visibility Clouds
250° at 17 knots
 Gusting to 27 knots
10,000+ meters
  • Few at 2,800' AGL
Temperatures Readings
Current 4°C / 39°F
Dewpoint -2°C / 28°F
Humidity 65%
Altimeter 29.5" Hg
Pressure 999 hPa
Elevation 549
METAR ETHL 151320Z 25017G27KT 9999 FEW028 04/M02 Q0999 BLU+
Observed Flight Rules
Dec-15 @ 13:20 UTC
(43 minutes ago)
VFR
Wind Visibility
250° at 17 knots
 Gusting to 27 knots
10,000+ meters
Clouds
  • Few at 2,800' AGL
Temperature Dewpoint
4°C / 39°F -2°C / 28°F
Humidity Altimeter Pressure
65% 29.5" Hg 999 hPa